Time;durP1;ratioP1;P1;durP2;ratioP2;P2;SDS_P1;SDS_P2;PMS_P1;PMS_P2;Temp;Humidity;BMP_temperature;BMP_pressure;BME280_temperature;BME280_humidity;BME280_pressure;Samples;Min_cycle;Max_cycle;Signal;HPM_P1;HPM_P2
2023/09/24 00:01:11;;;;;;;2.63;1.50;;;;;;;;;;5105148;28;20213;-70
2023/09/24 00:03:38;;;;;;;3.13;1.97;;;;;;;;;;5091140;28;20248;-70
2023/09/24 00:06:08;;;;;;;4.67;1.73;;;;;;;;;;5092786;28;20202;-70
2023/09/24 00:08:35;;;;;;;1.93;1.60;;;;;;;;;;5089330;28;20281;-70
2023/09/24 00:11:02;;;;;;;1.50;1.50;;;;;;;;;;5088231;28;20217;-70
2023/09/24 00:13:33;;;;;;;3.07;1.53;;;;;;;;;;5088556;28;20211;-70
2023/09/24 00:16:04;;;;;;;2.13;1.63;;;;;;;;;;5089160;28;20293;-70
2023/09/24 00:18:32;;;;;;;1.40;1.40;;;;;;;;;;5088524;28;20233;-70
2023/09/24 00:21:01;;;;;;;2.57;1.67;;;;;;;;;;5091661;28;20204;-70
2023/09/24 00:23:29;;;;;;;2.10;1.63;;;;;;;;;;5098024;28;20206;-70
2023/09/24 00:25:56;;;;;;;3.50;1.50;;;;;;;;;;5105390;28;20322;-70
2023/09/24 00:28:23;;;;;;;4.70;1.60;;;;;;;;;;5103856;28;20297;-70
2023/09/24 00:30:52;;;;;;;4.63;1.83;;;;;;;;;;5088411;28;20218;-70
2023/09/24 00:33:19;;;;;;;2.63;1.23;;;;;;;;;;5088154;28;20206;-69
2023/09/24 00:35:46;;;;;;;2.83;1.57;;;;;;;;;;5090851;28;20212;-70
2023/09/24 00:38:15;;;;;;;3.20;1.80;;;;;;;;;;5090033;28;20234;-70
2023/09/24 00:40:42;;;;;;;3.23;1.40;;;;;;;;;;5093084;28;20210;-70
2023/09/24 00:43:24;;;;;;;1.70;1.60;;;;;;;;;;5087956;28;20241;-70
2023/09/24 00:45:51;;;;;;;1.60;1.50;;;;;;;;;;5088424;28;20206;-70
2023/09/24 00:48:19;;;;;;;1.33;1.30;;;;;;;;;;5088294;28;20668;-70
2023/09/24 00:50:46;;;;;;;2.30;1.40;;;;;;;;;;5092174;28;20210;-70
2023/09/24 00:53:15;;;;;;;1.47;1.33;;;;;;;;;;5105254;28;20232;-70
2023/09/24 00:55:42;;;;;;;1.30;1.30;;;;;;;;;;5095924;28;20241;-71
2023/09/24 00:58:10;;;;;;;3.67;1.67;;;;;;;;;;5111293;27;20253;-70
2023/09/24 01:00:38;;;;;;;1.60;1.50;;;;;;;;;;5098170;28;20592;-70
2023/09/24 01:03:06;;;;;;;4.30;1.60;;;;;;;;;;5089277;28;20202;-70
2023/09/24 01:05:34;;;;;;;2.63;1.43;;;;;;;;;;5105630;28;20286;-70
2023/09/24 01:08:01;;;;;;;2.13;1.40;;;;;;;;;;5089748;28;20222;-70
2023/09/24 01:10:29;;;;;;;2.40;2.00;;;;;;;;;;5091654;28;20211;-70
2023/09/24 01:12:59;;;;;;;1.87;1.77;;;;;;;;;;5101749;28;20201;-70
2023/09/24 01:15:26;;;;;;;3.27;1.43;;;;;;;;;;5108979;28;20206;-70
2023/09/24 01:17:54;;;;;;;6.13;1.33;;;;;;;;;;5100103;28;20225;-70
2023/09/24 01:20:21;;;;;;;1.53;1.33;;;;;;;;;;5091053;28;20683;-70
2023/09/24 01:22:50;;;;;;;1.30;1.30;;;;;;;;;;5099895;28;20239;-70
2023/09/24 01:25:18;;;;;;;2.60;1.50;;;;;;;;;;5097661;27;20206;-70
2023/09/24 01:27:45;;;;;;;1.30;1.20;;;;;;;;;;5091521;28;20202;-70
2023/09/24 01:30:13;;;;;;;2.23;1.53;;;;;;;;;;5090728;28;20226;-70
2023/09/24 01:32:41;;;;;;;4.47;1.20;;;;;;;;;;5097967;28;20847;-70
2023/09/24 01:35:08;;;;;;;1.33;1.27;;;;;;;;;;5098634;28;20263;-70
2023/09/24 01:37:35;;;;;;;1.30;1.20;;;;;;;;;;5091044;28;20257;-71
2023/09/24 01:40:09;;;;;;;1.47;1.37;;;;;;;;;;5100471;28;20209;-70
2023/09/24 01:42:36;;;;;;;3.90;1.27;;;;;;;;;;5098355;28;20214;-70
2023/09/24 01:45:08;;;;;;;3.03;1.53;;;;;;;;;;5091686;28;20206;-70
2023/09/24 01:47:37;;;;;;;2.67;1.60;;;;;;;;;;5090859;28;20198;-70
2023/09/24 01:50:08;;;;;;;1.53;1.40;;;;;;;;;;5091061;28;20267;-70
2023/09/24 01:52:35;;;;;;;1.77;1.43;;;;;;;;;;5100771;28;20238;-70
2023/09/24 01:55:02;;;;;;;1.47;1.37;;;;;;;;;;5090865;28;20206;-70
2023/09/24 01:57:31;;;;;;;1.40;1.33;;;;;;;;;;5106288;28;20224;-70
2023/09/24 02:00:04;;;;;;;1.50;1.40;;;;;;;;;;5091208;28;20279;-69
2023/09/24 02:02:34;;;;;;;2.00;1.40;;;;;;;;;;5102020;28;20420;-69
2023/09/24 02:05:02;;;;;;;1.47;1.43;;;;;;;;;;5099442;28;20238;-70
2023/09/24 02:07:29;;;;;;;1.43;1.33;;;;;;;;;;5090542;28;20217;-70
2023/09/24 02:09:56;;;;;;;1.37;1.37;;;;;;;;;;5110165;28;20540;-70
2023/09/24 02:12:25;;;;;;;3.80;1.30;;;;;;;;;;5097570;28;20209;-70
2023/09/24 02:14:54;;;;;;;3.70;1.73;;;;;;;;;;5095315;28;20212;-70
2023/09/24 02:17:21;;;;;;;1.40;1.30;;;;;;;;;;5090326;27;20202;-70
2023/09/24 02:19:48;;;;;;;1.40;1.17;;;;;;;;;;5097277;28;20209;-70
2023/09/24 02:22:17;;;;;;;3.30;1.30;;;;;;;;;;5107161;28;20231;-70
2023/09/24 02:24:44;;;;;;;2.83;1.20;;;;;;;;;;5101130;28;20225;-69
2023/09/24 02:27:11;;;;;;;1.30;1.30;;;;;;;;;;5094949;28;20217;-70
2023/09/24 02:29:38;;;;;;;2.00;1.20;;;;;;;;;;5089489;28;20229;-70
2023/09/24 02:32:07;;;;;;;1.20;1.20;;;;;;;;;;5097504;28;20195;-70
2023/09/24 02:34:34;;;;;;;1.30;1.20;;;;;;;;;;5103652;28;20234;-70
2023/09/24 02:37:01;;;;;;;1.30;1.20;;;;;;;;;;5094775;28;20716;-70
2023/09/24 02:39:28;;;;;;;1.20;1.20;;;;;;;;;;5101323;28;20226;-69
2023/09/24 02:41:55;;;;;;;0.97;0.97;;;;;;;;;;5096908;28;20213;-69
2023/09/24 02:44:22;;;;;;;0.97;0.90;;;;;;;;;;5103810;28;20244;-70
2023/09/24 02:46:49;;;;;;;2.40;1.20;;;;;;;;;;5092872;28;20552;-69
2023/09/24 02:49:20;;;;;;;1.00;0.93;;;;;;;;;;5089765;28;20734;-70
2023/09/24 02:51:49;;;;;;;1.20;1.10;;;;;;;;;;5090090;28;20202;-69
2023/09/24 02:54:17;;;;;;;2.43;1.00;;;;;;;;;;5103400;28;20663;-69
2023/09/24 02:56:44;;;;;;;2.63;0.90;;;;;;;;;;5108726;28;20233;-69
2023/09/24 02:59:12;;;;;;;1.90;0.90;;;;;;;;;;5093544;28;20218;-69
2023/09/24 03:01:40;;;;;;;1.03;1.03;;;;;;;;;;5092380;28;20282;-69
2023/09/24 03:04:07;;;;;;;1.17;1.17;;;;;;;;;;5089752;28;20989;-70
2023/09/24 03:06:37;;;;;;;3.00;1.30;;;;;;;;;;5091356;28;20207;-69
2023/09/24 03:09:06;;;;;;;3.90;1.13;;;;;;;;;;5101322;28;20293;-69
2023/09/24 03:11:34;;;;;;;2.70;1.30;;;;;;;;;;5093596;28;20585;-69
2023/09/24 03:14:01;;;;;;;1.33;1.30;;;;;;;;;;5097087;28;20202;-69
2023/09/24 03:16:28;;;;;;;1.13;1.13;;;;;;;;;;5105073;27;20217;-69
2023/09/24 03:18:55;;;;;;;1.33;1.17;;;;;;;;;;5089412;28;20222;-69
2023/09/24 03:21:22;;;;;;;1.63;1.53;;;;;;;;;;5090935;28;20278;-69
2023/09/24 03:23:52;;;;;;;1.07;0.97;;;;;;;;;;5110359;28;20232;-69
2023/09/24 03:26:19;;;;;;;1.87;1.60;;;;;;;;;;5089581;28;20264;-69
2023/09/24 03:28:47;;;;;;;5.30;1.50;;;;;;;;;;5101751;28;20201;-69
2023/09/24 03:31:15;;;;;;;1.50;1.43;;;;;;;;;;5089614;28;20229;-69
2023/09/24 03:33:42;;;;;;;2.07;1.60;;;;;;;;;;5089746;28;20264;-69
2023/09/24 03:36:10;;;;;;;1.40;1.40;;;;;;;;;;5089689;28;20218;-69
2023/09/24 03:38:37;;;;;;;1.40;1.30;;;;;;;;;;5089476;28;20658;-69
2023/09/24 03:41:05;;;;;;;1.50;1.50;;;;;;;;;;5089021;28;20206;-69
2023/09/24 03:46:35;;;;;;;3.57;1.73;;;;;;;;;;5088941;28;20193;-69
2023/09/24 03:49:02;;;;;;;1.37;1.20;;;;;;;;;;5092847;28;20259;-70
2023/09/24 03:51:29;;;;;;;1.10;1.10;;;;;;;;;;5099173;28;20676;-69
2023/09/24 03:53:59;;;;;;;1.13;1.13;;;;;;;;;;5089491;28;20206;-69
2023/09/24 03:56:28;;;;;;;4.13;1.30;;;;;;;;;;5088499;28;20320;-69
2023/09/24 03:58:55;;;;;;;1.10;1.10;;;;;;;;;;5089585;28;20230;-69
2023/09/24 04:01:23;;;;;;;1.33;1.23;;;;;;;;;;5088353;28;22002;-69
2023/09/24 04:03:50;;;;;;;1.10;1.10;;;;;;;;;;5109139;28;20307;-69
2023/09/24 04:06:17;;;;;;;1.50;1.13;;;;;;;;;;5095010;28;20230;-69
2023/09/24 04:08:45;;;;;;;1.43;1.27;;;;;;;;;;5089387;28;20234;-69
2023/09/24 04:11:15;;;;;;;1.63;1.40;;;;;;;;;;5092439;28;20210;-69
2023/09/24 04:13:43;;;;;;;5.73;1.40;;;;;;;;;;5093405;28;20396;-69
2023/09/24 04:16:12;;;;;;;2.33;1.30;;;;;;;;;;5104071;28;20202;-69
2023/09/24 04:18:41;;;;;;;1.27;1.20;;;;;;;;;;5089315;28;20748;-69
2023/09/24 04:21:15;;;;;;;4.50;1.60;;;;;;;;;;5088798;28;20270;-69
2023/09/24 04:26:46;;;;;;;2.97;1.63;;;;;;;;;;5092866;28;20270;-70
2023/09/24 04:29:15;;;;;;;2.00;1.23;;;;;;;;;;5097015;28;20207;-69
2023/09/24 04:31:42;;;;;;;1.20;1.20;;;;;;;;;;5110935;28;20783;-69
2023/09/24 04:34:12;;;;;;;1.20;1.20;;;;;;;;;;5098914;28;20233;-69
2023/09/24 04:36:39;;;;;;;2.77;1.13;;;;;;;;;;5104894;27;20234;-69
2023/09/24 04:39:06;;;;;;;0.80;0.80;;;;;;;;;;5093934;28;20217;-69
2023/09/24 04:41:34;;;;;;;1.07;1.07;;;;;;;;;;5092644;28;20206;-69
2023/09/24 04:44:01;;;;;;;2.77;1.30;;;;;;;;;;5096940;28;20318;-69
2023/09/24 04:46:29;;;;;;;2.20;1.10;;;;;;;;;;5106033;28;20569;-69
2023/09/24 04:48:56;;;;;;;2.33;1.00;;;;;;;;;;5092276;28;20207;-69
2023/09/24 04:51:23;;;;;;;3.30;0.90;;;;;;;;;;5092783;28;20218;-69
2023/09/24 04:53:50;;;;;;;1.13;1.10;;;;;;;;;;5093957;28;20206;-69
2023/09/24 04:56:17;;;;;;;3.33;1.40;;;;;;;;;;5092371;28;20712;-69
2023/09/24 04:58:44;;;;;;;1.67;1.20;;;;;;;;;;5092360;28;20607;-69
2023/09/24 05:01:12;;;;;;;1.03;1.03;;;;;;;;;;5091940;28;20221;-69
2023/09/24 05:03:42;;;;;;;2.23;1.10;;;;;;;;;;5110333;28;20597;-69
2023/09/24 05:06:09;;;;;;;1.80;1.20;;;;;;;;;;5111134;28;20630;-69
2023/09/24 05:08:36;;;;;;;0.87;0.87;;;;;;;;;;5093599;28;20210;-69
2023/09/24 05:11:03;;;;;;;0.93;0.93;;;;;;;;;;5092490;28;20207;-69
2023/09/24 05:13:31;;;;;;;0.93;0.93;;;;;;;;;;5112085;28;20301;-69
2023/09/24 05:16:00;;;;;;;1.30;1.20;;;;;;;;;;5112843;28;20205;-69
2023/09/24 05:18:27;;;;;;;1.23;1.13;;;;;;;;;;5091671;28;20222;-69
2023/09/24 05:20:56;;;;;;;1.30;1.10;;;;;;;;;;5092247;28;20218;-65
2023/09/24 05:26:26;;;;;;;1.00;1.00;;;;;;;;;;5092263;28;20185;-70
2023/09/24 05:28:53;;;;;;;1.63;1.00;;;;;;;;;;5093093;28;20251;-70
2023/09/24 05:31:21;;;;;;;2.50;1.33;;;;;;;;;;5109779;28;20232;-69
2023/09/24 05:33:48;;;;;;;3.13;1.43;;;;;;;;;;5097744;28;20210;-69
2023/09/24 05:36:17;;;;;;;1.33;1.20;;;;;;;;;;5092192;28;20260;-70
2023/09/24 05:38:44;;;;;;;3.90;1.00;;;;;;;;;;5102873;28;20700;-69
2023/09/24 05:41:11;;;;;;;0.90;0.90;;;;;;;;;;5094939;28;20214;-69
2023/09/24 05:43:44;;;;;;;1.00;1.00;;;;;;;;;;5097915;28;20229;-69
2023/09/24 05:46:38;;;;;;;1.17;1.10;;;;;;;;;;5091855;28;20202;-69
2023/09/24 05:49:05;;;;;;;2.30;1.20;;;;;;;;;;5091205;28;20198;-69
2023/09/24 05:51:33;;;;;;;1.30;1.20;;;;;;;;;;5091429;28;20733;-69
2023/09/24 05:54:00;;;;;;;2.43;1.20;;;;;;;;;;5090585;28;20218;-69
2023/09/24 05:59:31;;;;;;;2.00;1.20;;;;;;;;;;5093000;28;20779;-69
2023/09/24 06:01:58;;;;;;;2.70;1.30;;;;;;;;;;5094355;28;20229;-70
2023/09/24 06:04:25;;;;;;;3.70;1.50;;;;;;;;;;5090706;28;20604;-69
2023/09/24 06:06:54;;;;;;;3.60;1.07;;;;;;;;;;5091258;28;20206;-69
2023/09/24 06:09:21;;;;;;;2.83;1.03;;;;;;;;;;5090844;28;20202;-69
2023/09/24 06:11:49;;;;;;;1.07;1.07;;;;;;;;;;5091473;28;20210;-69
2023/09/24 06:14:16;;;;;;;1.03;1.03;;;;;;;;;;5091462;28;20216;-70
2023/09/24 06:16:43;;;;;;;1.70;1.00;;;;;;;;;;5090959;28;20279;-70
2023/09/24 06:19:10;;;;;;;1.23;1.10;;;;;;;;;;5096284;28;20226;-69
2023/09/24 06:21:37;;;;;;;1.80;1.20;;;;;;;;;;5111512;28;20210;-69
2023/09/24 06:24:06;;;;;;;1.87;1.20;;;;;;;;;;5108113;28;20214;-70
2023/09/24 06:26:35;;;;;;;1.23;1.23;;;;;;;;;;5093237;28;20220;-70
2023/09/24 06:29:02;;;;;;;2.17;1.10;;;;;;;;;;5090951;28;20204;-69
2023/09/24 06:31:31;;;;;;;1.10;1.10;;;;;;;;;;5090944;28;20297;-70
2023/09/24 06:37:02;;;;;;;1.63;1.50;;;;;;;;;;5089165;28;20278;-69
2023/09/24 06:39:30;;;;;;;1.33;1.33;;;;;;;;;;5090229;28;20615;-69
2023/09/24 06:41:58;;;;;;;1.40;1.40;;;;;;;;;;5090834;28;20351;-69
2023/09/24 06:44:25;;;;;;;1.67;1.20;;;;;;;;;;5098646;28;20624;-69
2023/09/24 06:46:52;;;;;;;3.73;1.90;;;;;;;;;;5103434;28;20206;-70
2023/09/24 06:49:20;;;;;;;1.90;1.80;;;;;;;;;;5096731;28;20729;-68
2023/09/24 06:51:47;;;;;;;2.63;2.00;;;;;;;;;;5103693;28;20297;-69
2023/09/24 06:54:14;;;;;;;2.23;2.10;;;;;;;;;;5090234;28;20213;-69
2023/09/24 06:56:44;;;;;;;5.07;2.30;;;;;;;;;;5093028;28;20592;-68
2023/09/24 06:59:11;;;;;;;2.40;2.30;;;;;;;;;;5089823;28;20250;-69
2023/09/24 07:01:38;;;;;;;4.93;2.30;;;;;;;;;;5090398;28;20214;-68
2023/09/24 07:04:06;;;;;;;3.03;2.00;;;;;;;;;;5093247;28;20715;-68
2023/09/24 07:06:33;;;;;;;2.40;2.30;;;;;;;;;;5094543;28;20297;-68
2023/09/24 07:09:00;;;;;;;2.40;2.20;;;;;;;;;;5095522;28;20206;-68
2023/09/24 07:11:30;;;;;;;2.10;2.00;;;;;;;;;;5089953;28;20553;-71
2023/09/24 07:13:59;;;;;;;4.17;2.60;;;;;;;;;;5092712;28;20214;-68
2023/09/24 07:16:26;;;;;;;3.43;2.60;;;;;;;;;;5089798;28;20214;-69
2023/09/24 07:18:54;;;;;;;4.33;2.83;;;;;;;;;;5089128;28;20206;-68
2023/09/24 07:21:21;;;;;;;3.30;2.90;;;;;;;;;;5089756;28;20202;-67
2023/09/24 07:23:51;;;;;;;3.10;2.87;;;;;;;;;;5103696;28;20271;-69
2023/09/24 07:26:18;;;;;;;5.07;2.30;;;;;;;;;;5091494;28;20230;-70
2023/09/24 07:28:45;;;;;;;3.13;2.87;;;;;;;;;;5089188;28;20281;-65
2023/09/24 07:31:19;;;;;;;3.80;3.30;;;;;;;;;;5090604;28;20289;-67
2023/09/24 07:33:46;;;;;;;4.83;2.83;;;;;;;;;;5092812;28;20210;-68
2023/09/24 07:36:13;;;;;;;3.80;3.10;;;;;;;;;;5098032;28;20244;-70
2023/09/24 07:38:40;;;;;;;3.23;3.03;;;;;;;;;;5093669;28;20199;-70
2023/09/24 07:41:08;;;;;;;3.90;2.87;;;;;;;;;;5104159;28;20316;-72
2023/09/24 07:43:35;;;;;;;3.63;2.83;;;;;;;;;;5108009;28;20206;-71
2023/09/24 07:46:02;;;;;;;4.40;2.93;;;;;;;;;;5089593;28;20203;-73
2023/09/24 07:48:30;;;;;;;3.00;2.90;;;;;;;;;;5089958;28;20275;-72
2023/09/24 07:50:58;;;;;;;7.73;3.03;;;;;;;;;;5101730;28;20206;-73
2023/09/24 07:53:25;;;;;;;3.70;3.33;;;;;;;;;;5096164;28;20228;-74
2023/09/24 07:55:56;;;;;;;2.97;2.77;;;;;;;;;;5092831;28;20202;-72
2023/09/24 07:58:23;;;;;;;3.77;3.47;;;;;;;;;;5106075;28;20320;-66
2023/09/24 08:00:50;;;;;;;3.30;3.00;;;;;;;;;;5101750;28;20226;-66
2023/09/24 08:03:17;;;;;;;3.27;3.07;;;;;;;;;;5098768;28;20230;-68
2023/09/24 08:05:46;;;;;;;3.00;2.80;;;;;;;;;;5104151;28;20753;-65
2023/09/24 08:08:13;;;;;;;2.97;2.43;;;;;;;;;;5096378;28;20604;-67
2023/09/24 08:10:40;;;;;;;4.17;2.80;;;;;;;;;;5097055;28;20210;-65
2023/09/24 08:13:07;;;;;;;3.03;2.40;;;;;;;;;;5097005;28;20695;-65
2023/09/24 08:15:34;;;;;;;6.20;2.53;;;;;;;;;;5092373;28;20202;-66
2023/09/24 08:18:01;;;;;;;3.05;2.83;;;;;;;;;;5095697;28;20206;-66
2023/09/24 08:20:28;;;;;;;2.70;2.50;;;;;;;;;;5109170;28;20232;-66
2023/09/24 08:22:56;;;;;;;3.55;2.67;;;;;;;;;;5109405;27;20204;-64
2023/09/24 08:25:24;;;;;;;3.25;3.05;;;;;;;;;;5102926;27;20206;-66
2023/09/24 08:27:51;;;;;;;3.85;3.03;;;;;;;;;;5103671;28;20202;-66
2023/09/24 08:30:18;;;;;;;5.22;2.80;;;;;;;;;;5100921;28;20601;-69
2023/09/24 08:32:45;;;;;;;5.43;2.53;;;;;;;;;;5096900;28;20237;-70
2023/09/24 08:35:13;;;;;;;1.83;1.73;;;;;;;;;;5104851;28;20206;-69
2023/09/24 08:37:40;;;;;;;3.30;2.20;;;;;;;;;;5090748;28;20210;-71
2023/09/24 08:40:11;;;;;;;2.63;2.22;;;;;;;;;;5090947;28;20241;-68
2023/09/24 08:42:38;;;;;;;3.38;2.58;;;;;;;;;;5092884;28;20245;-69
2023/09/24 08:45:11;;;;;;;2.55;2.10;;;;;;;;;;5089749;28;20206;-69
2023/09/24 08:47:38;;;;;;;2.55;2.35;;;;;;;;;;5095769;28;20218;-70
2023/09/24 08:50:07;;;;;;;2.40;2.20;;;;;;;;;;5102411;28;20585;-71
2023/09/24 08:52:36;;;;;;;2.67;2.47;;;;;;;;;;5093180;28;20210;-69
2023/09/24 08:55:03;;;;;;;2.15;2.05;;;;;;;;;;5085261;28;20210;-69
2023/09/24 08:57:32;;;;;;;1.95;1.85;;;;;;;;;;5087014;28;20225;-70
2023/09/24 08:59:59;;;;;;;2.05;1.95;;;;;;;;;;5082323;28;20233;-70
2023/09/24 09:02:26;;;;;;;2.25;2.08;;;;;;;;;;5083418;28;20225;-70
2023/09/24 09:04:55;;;;;;;2.35;2.10;;;;;;;;;;5084883;28;20249;-69
2023/09/24 09:07:22;;;;;;;2.35;1.90;;;;;;;;;;5084941;28;20216;-72
2023/09/24 09:09:56;;;;;;;2.47;1.92;;;;;;;;;;5083789;28;20199;-71
2023/09/24 09:12:23;;;;;;;3.55;2.03;;;;;;;;;;5086622;28;20308;-70
2023/09/24 09:14:52;;;;;;;2.58;1.63;;;;;;;;;;5082204;28;20209;-71
2023/09/24 09:17:19;;;;;;;2.45;2.10;;;;;;;;;;5081823;28;20213;-72
2023/09/24 09:19:48;;;;;;;2.13;1.90;;;;;;;;;;5081007;28;20680;-72
2023/09/24 09:22:18;;;;;;;2.15;1.90;;;;;;;;;;5085330;28;20304;-66
2023/09/24 09:24:45;;;;;;;3.38;2.00;;;;;;;;;;5090759;28;20212;-69
2023/09/24 09:27:12;;;;;;;5.72;3.05;;;;;;;;;;5087337;28;20206;-64
2023/09/24 09:29:39;;;;;;;2.15;2.05;;;;;;;;;;5087644;28;20202;-66
2023/09/24 09:32:08;;;;;;;1.67;1.48;;;;;;;;;;5090262;28;20222;-67
2023/09/24 09:34:35;;;;;;;3.03;2.03;;;;;;;;;;5080520;28;20210;-69
2023/09/24 09:37:17;;;;;;;1.92;1.83;;;;;;;;;;5084265;28;20214;-70
2023/09/24 09:39:44;;;;;;;2.10;1.63;;;;;;;;;;5088863;28;20210;-68
2023/09/24 09:42:12;;;;;;;1.67;1.65;;;;;;;;;;5087447;28;20724;-69
2023/09/24 09:44:39;;;;;;;3.22;2.30;;;;;;;;;;5093714;28;20213;-69
2023/09/24 09:47:10;;;;;;;3.80;1.80;;;;;;;;;;5094655;28;20214;-73
2023/09/24 09:49:41;;;;;;;1.80;1.70;;;;;;;;;;5092757;28;20942;-73
2023/09/24 09:52:09;;;;;;;3.85;1.70;;;;;;;;;;5087554;28;20202;-74
2023/09/24 09:54:38;;;;;;;2.22;2.13;;;;;;;;;;5083595;28;20322;-74
2023/09/24 09:57:05;;;;;;;1.48;1.48;;;;;;;;;;5083693;28;20254;-70
2023/09/24 09:59:35;;;;;;;1.83;1.67;;;;;;;;;;5087680;28;20214;-67
2023/09/24 10:02:02;;;;;;;7.25;1.95;;;;;;;;;;5090692;28;20257;-67
2023/09/24 10:04:31;;;;;;;3.63;3.30;;;;;;;;;;5092736;28;20616;-65
2023/09/24 10:06:58;;;;;;;3.25;1.50;;;;;;;;;;5093369;28;20210;-65
2023/09/24 10:09:35;;;;;;;5.43;1.67;;;;;;;;;;5087730;28;20213;-62
2023/09/24 10:12:07;;;;;;;1.38;1.27;;;;;;;;;;5098047;28;20208;-65
2023/09/24 10:14:35;;;;;;;1.30;1.00;;;;;;;;;;5096932;28;20210;-63
2023/09/24 10:17:21;;;;;;;1.10;1.10;;;;;;;;;;5091495;28;20203;-63
2023/09/24 10:19:50;;;;;;;1.10;1.10;;;;;;;;;;5107349;28;20274;-63
2023/09/24 10:22:27;;;;;;;1.48;1.40;;;;;;;;;;5080957;28;20620;-63
2023/09/24 10:24:54;;;;;;;3.58;1.20;;;;;;;;;;5086900;28;20213;-63
2023/09/24 10:27:25;;;;;;;2.97;1.48;;;;;;;;;;5083513;28;20214;-63
2023/09/24 10:30:16;;;;;;;1.63;1.52;;;;;;;;;;5096167;28;20206;-63
2023/09/24 10:32:49;;;;;;;1.70;1.60;;;;;;;;;;5096987;28;20217;-63
2023/09/24 10:35:18;;;;;;;0.95;0.95;;;;;;;;;;5091925;28;20251;-63
2023/09/24 10:38:02;;;;;;;0.90;0.90;;;;;;;;;;5102775;28;20616;-63
2023/09/24 10:40:29;;;;;;;1.65;0.90;;;;;;;;;;5092561;28;20262;-63
2023/09/24 10:43:20;;;;;;;1.60;1.48;;;;;;;;;;5089354;28;20207;-64
2023/09/24 10:45:48;;;;;;;1.40;1.30;;;;;;;;;;5085766;28;20243;-63
2023/09/24 10:48:16;;;;;;;1.20;1.10;;;;;;;;;;5099113;28;20222;-64
2023/09/24 10:50:45;;;;;;;2.25;1.30;;;;;;;;;;5086219;28;20222;-63
2023/09/24 10:53:12;;;;;;;2.10;1.00;;;;;;;;;;5086563;28;20744;-64
2023/09/24 10:55:43;;;;;;;0.90;0.90;;;;;;;;;;5089679;28;20202;-63
2023/09/24 10:58:12;;;;;;;1.48;1.20;;;;;;;;;;5090277;28;20222;-64
2023/09/24 11:00:39;;;;;;;1.05;1.00;;;;;;;;;;5087258;28;20299;-64
2023/09/24 11:03:07;;;;;;;1.77;1.00;;;;;;;;;;5093853;28;20201;-64
2023/09/24 11:05:36;;;;;;;3.10;1.30;;;;;;;;;;5093354;28;20324;-63
2023/09/24 11:08:04;;;;;;;1.02;0.85;;;;;;;;;;5094311;28;20206;-66
2023/09/24 11:10:32;;;;;;;1.85;0.93;;;;;;;;;;5088876;28;20357;-66
2023/09/24 11:13:01;;;;;;;2.03;0.90;;;;;;;;;;5091883;28;20198;-66
2023/09/24 11:15:31;;;;;;;0.98;0.95;;;;;;;;;;5092152;28;20210;-65
2023/09/24 11:17:58;;;;;;;2.97;1.42;;;;;;;;;;5093643;28;20295;-66
2023/09/24 11:23:38;;;;;;;1.60;0.85;;;;;;;;;;5083007;28;20213;-63
2023/09/24 11:26:05;;;;;;;1.60;1.50;;;;;;;;;;5086718;28;20225;-62
2023/09/24 11:28:32;;;;;;;2.47;1.40;;;;;;;;;;5089009;28;20214;-63
2023/09/24 11:30:59;;;;;;;1.27;1.27;;;;;;;;;;5085399;28;20207;-63
2023/09/24 11:33:26;;;;;;;2.05;0.93;;;;;;;;;;5089087;28;20214;-63
2023/09/24 11:35:54;;;;;;;3.42;2.90;;;;;;;;;;5099978;28;20209;-65
2023/09/24 11:38:29;;;;;;;0.60;0.60;;;;;;;;;;5099288;28;20207;-70
2023/09/24 11:41:06;;;;;;;1.15;0.73;;;;;;;;;;5103836;28;20221;-69
2023/09/24 11:43:33;;;;;;;8.07;5.30;;;;;;;;;;5091818;28;20205;-71
2023/09/24 11:46:00;;;;;;;1.13;1.00;;;;;;;;;;5088481;28;20225;-71
2023/09/24 11:48:27;;;;;;;1.05;0.95;;;;;;;;;;5109158;28;20345;-65
2023/09/24 11:50:56;;;;;;;2.65;0.93;;;;;;;;;;5086840;28;20448;-65
2023/09/24 11:53:25;;;;;;;0.80;0.63;;;;;;;;;;5089477;28;20274;-67
2023/09/24 11:55:53;;;;;;;0.75;0.70;;;;;;;;;;5079646;28;20206;-69
2023/09/24 11:58:25;;;;;;;2.03;0.70;;;;;;;;;;5087073;28;20553;-68
2023/09/24 12:00:53;;;;;;;1.58;0.65;;;;;;;;;;5091336;28;20233;-71
2023/09/24 12:03:20;;;;;;;0.50;0.50;;;;;;;;;;5085685;28;20379;-70
2023/09/24 12:05:48;;;;;;;0.70;0.70;;;;;;;;;;5094326;28;20207;-69
2023/09/24 12:08:18;;;;;;;1.13;1.00;;;;;;;;;;5093509;28;20279;-70
2023/09/24 12:10:46;;;;;;;1.55;0.60;;;;;;;;;;5095464;28;20776;-69
2023/09/24 12:13:14;;;;;;;1.15;0.73;;;;;;;;;;5090652;28;20216;-70
2023/09/24 12:15:42;;;;;;;1.38;0.60;;;;;;;;;;5103932;28;20205;-70
2023/09/24 12:18:09;;;;;;;0.65;0.65;;;;;;;;;;5104374;28;20210;-70
2023/09/24 12:20:37;;;;;;;1.20;0.50;;;;;;;;;;5088523;28;20218;-70
2023/09/24 12:23:06;;;;;;;1.20;0.50;;;;;;;;;;5098232;28;20209;-68
2023/09/24 12:25:35;;;;;;;1.60;0.52;;;;;;;;;;5094772;28;20209;-68
2023/09/24 12:28:03;;;;;;;1.40;0.70;;;;;;;;;;5095087;28;20242;-71
2023/09/24 12:30:30;;;;;;;0.45;0.45;;;;;;;;;;5087553;28;20788;-69
2023/09/24 12:32:58;;;;;;;0.60;0.60;;;;;;;;;;5086622;28;21488;-69
2023/09/24 12:35:26;;;;;;;0.70;0.60;;;;;;;;;;5093235;28;20203;-69
2023/09/24 12:37:54;;;;;;;2.53;0.70;;;;;;;;;;5083729;28;20691;-68
2023/09/24 12:40:21;;;;;;;0.40;0.40;;;;;;;;;;5086700;28;20234;-69
2023/09/24 12:42:48;;;;;;;2.40;1.95;;;;;;;;;;5087179;28;20237;-69
2023/09/24 12:45:16;;;;;;;2.05;1.88;;;;;;;;;;5089481;28;20210;-69
2023/09/24 12:47:43;;;;;;;2.90;0.60;;;;;;;;;;5094124;28;20206;-69
2023/09/24 12:50:12;;;;;;;0.60;0.60;;;;;;;;;;5093825;28;20205;-69
2023/09/24 12:52:41;;;;;;;0.70;0.70;;;;;;;;;;5090238;28;20210;-69
2023/09/24 12:55:09;;;;;;;1.15;0.68;;;;;;;;;;5097218;28;20206;-68
2023/09/24 12:57:36;;;;;;;2.25;1.95;;;;;;;;;;5091534;28;20241;-69
2023/09/24 13:00:07;;;;;;;0.75;0.75;;;;;;;;;;5091374;28;21089;-69
2023/09/24 13:02:35;;;;;;;0.73;0.73;;;;;;;;;;5090127;28;20233;-70
2023/09/24 13:05:02;;;;;;;1.95;0.80;;;;;;;;;;5099554;28;20236;-70
2023/09/24 13:07:30;;;;;;;1.58;0.70;;;;;;;;;;5107702;28;20572;-69
2023/09/24 13:09:58;;;;;;;1.05;0.80;;;;;;;;;;5095079;28;20202;-69
2023/09/24 13:12:25;;;;;;;3.60;0.90;;;;;;;;;;5091959;28;20206;-69
2023/09/24 13:14:52;;;;;;;0.88;0.73;;;;;;;;;;5093644;28;20229;-71
2023/09/24 13:17:22;;;;;;;0.77;0.77;;;;;;;;;;5091268;28;20213;-70
2023/09/24 13:19:49;;;;;;;2.63;1.00;;;;;;;;;;5095921;28;20207;-69
2023/09/24 13:22:16;;;;;;;1.08;0.60;;;;;;;;;;5091243;28;20230;-70
2023/09/24 13:24:44;;;;;;;0.70;0.70;;;;;;;;;;5097075;28;20209;-70
2023/09/24 13:27:11;;;;;;;1.55;0.80;;;;;;;;;;5105538;28;20209;-70
2023/09/24 13:29:38;;;;;;;0.63;0.63;;;;;;;;;;5093689;28;20631;-70
2023/09/24 13:32:05;;;;;;;0.70;0.70;;;;;;;;;;5098406;28;20197;-68
2023/09/24 13:34:32;;;;;;;8.35;5.38;;;;;;;;;;5102923;28;20201;-68
2023/09/24 13:37:00;;;;;;;0.75;0.75;;;;;;;;;;5096363;28;20281;-72
2023/09/24 13:39:27;;;;;;;0.60;0.60;;;;;;;;;;5100733;28;20213;-69
2023/09/24 13:41:55;;;;;;;0.60;0.60;;;;;;;;;;5111035;28;20234;-72
2023/09/24 13:44:23;;;;;;;2.38;0.70;;;;;;;;;;5110040;28;20209;-70
2023/09/24 13:46:51;;;;;;;1.15;0.50;;;;;;;;;;5089717;28;20229;-67
2023/09/24 13:49:19;;;;;;;0.50;0.50;;;;;;;;;;5089755;28;20253;-67
2023/09/24 13:51:46;;;;;;;0.90;0.52;;;;;;;;;;5090093;28;20209;-66
2023/09/24 13:54:13;;;;;;;0.70;0.70;;;;;;;;;;5090149;28;20209;-67
2023/09/24 13:56:40;;;;;;;0.57;0.57;;;;;;;;;;5086411;28;20229;-67
2023/09/24 13:59:09;;;;;;;0.70;0.60;;;;;;;;;;5089271;28;20682;-65
2023/09/24 14:01:36;;;;;;;0.60;0.60;;;;;;;;;;5089311;28;20615;-66
2023/09/24 14:04:03;;;;;;;2.10;0.50;;;;;;;;;;5089278;28;20253;-65
2023/09/24 14:06:30;;;;;;;1.80;1.70;;;;;;;;;;5088161;28;20203;-69
2023/09/24 14:14:28;;;;;;;0.50;0.50;;;;;;;;;;5089487;28;20339;-68
2023/09/24 14:16:55;;;;;;;0.50;0.50;;;;;;;;;;5089830;28;20217;-67
2023/09/24 14:19:22;;;;;;;0.50;0.50;;;;;;;;;;5099633;28;20218;-68
2023/09/24 14:21:49;;;;;;;2.15;0.65;;;;;;;;;;5100496;28;20255;-67
2023/09/24 14:24:16;;;;;;;0.70;0.70;;;;;;;;;;5099577;28;20210;-68
2023/09/24 14:26:44;;;;;;;2.50;0.60;;;;;;;;;;5102740;28;20601;-68
2023/09/24 14:29:11;;;;;;;0.60;0.60;;;;;;;;;;5110282;28;20221;-69
2023/09/24 14:31:39;;;;;;;0.65;0.47;;;;;;;;;;5089900;28;20574;-69
2023/09/24 14:34:07;;;;;;;1.20;0.60;;;;;;;;;;5098091;28;20543;-69
2023/09/24 14:36:34;;;;;;;0.50;0.50;;;;;;;;;;5109869;28;20305;-68
2023/09/24 14:39:02;;;;;;;3.72;0.60;;;;;;;;;;5108825;28;20201;-69
2023/09/24 14:41:29;;;;;;;0.70;0.70;;;;;;;;;;5100559;28;20249;-70
2023/09/24 14:43:57;;;;;;;0.50;0.50;;;;;;;;;;5089245;28;20206;-69
2023/09/24 14:46:26;;;;;;;0.60;0.60;;;;;;;;;;5089200;28;20232;-69
2023/09/24 14:48:54;;;;;;;0.63;0.63;;;;;;;;;;5088773;28;20206;-69
2023/09/24 14:51:21;;;;;;;0.82;0.82;;;;;;;;;;5089458;28;20202;-69
2023/09/24 14:53:48;;;;;;;0.40;0.40;;;;;;;;;;5088909;28;20237;-69
2023/09/24 14:56:20;;;;;;;0.50;0.50;;;;;;;;;;5089474;28;20230;-69
2023/09/24 14:58:47;;;;;;;0.52;0.52;;;;;;;;;;5086304;28;20241;-69
2023/09/24 15:01:14;;;;;;;0.60;0.55;;;;;;;;;;5088135;28;20230;-69
2023/09/24 15:03:41;;;;;;;0.63;0.63;;;;;;;;;;5088702;28;20238;-69
2023/09/24 15:06:10;;;;;;;0.47;0.47;;;;;;;;;;5105528;28;20209;-69
2023/09/24 15:08:37;;;;;;;0.50;0.50;;;;;;;;;;5096013;28;20210;-69
2023/09/24 15:11:04;;;;;;;0.40;0.40;;;;;;;;;;5089504;28;20210;-70
2023/09/24 15:13:31;;;;;;;0.60;0.60;;;;;;;;;;5089060;28;20214;-69